createdAt,value
2022-09-17T00:01:29.711Z,100063.19
2022-09-17T00:04:04.347Z,100068.34
2022-09-17T00:06:34.367Z,100073.53
2022-09-17T00:09:02.578Z,100074.81
2022-09-17T00:11:33.490Z,100060.22
2022-09-17T00:14:03.160Z,100070.88
2022-09-17T00:16:32.867Z,100071.69
2022-09-17T00:19:01.565Z,100068.00
2022-09-17T00:21:30.420Z,100071.94
2022-09-17T00:23:59.917Z,100073.59
2022-09-17T00:26:28.804Z,100076.19
2022-09-17T00:28:59.275Z,100071.19
2022-09-17T00:31:28.502Z,100074.16
2022-09-17T00:33:56.728Z,100068.53
2022-09-17T00:36:24.759Z,100068.72
2022-09-17T00:38:53.135Z,100066.13
2022-09-17T00:41:22.380Z,100065.31
2022-09-17T00:43:52.459Z,100062.72
2022-09-17T00:46:31.403Z,100067.28
2022-09-17T00:49:02.930Z,100066.28
2022-09-17T00:51:36.382Z,100066.50
2022-09-17T00:54:07.613Z,100067.19
2022-09-17T00:56:38.086Z,100063.88
2022-09-17T00:59:07.053Z,100074.59
2022-09-17T01:01:37.423Z,100074.59
2022-09-17T01:04:05.548Z,100076.34
2022-09-17T01:06:38.145Z,100073.09
2022-09-17T01:09:23.233Z,100074.91
2022-09-17T01:12:04.702Z,100070.16
2022-09-17T01:14:48.852Z,100069.31
2022-09-17T01:17:24.981Z,100075.69
2022-09-17T01:20:32.394Z,100071.63
2022-09-17T01:23:32.993Z,100062.28
2022-09-17T01:26:19.812Z,100072.69
2022-09-17T01:28:57.949Z,100072.44
2022-09-17T01:31:36.322Z,100066.84
2022-09-17T01:34:13.071Z,100070.25
2022-09-17T01:36:49.997Z,100069.19
2022-09-17T01:39:30.027Z,100069.00
2022-09-17T01:42:06.149Z,100065.25
2022-09-17T01:44:41.783Z,100063.59
2022-09-17T01:47:20.942Z,100077.38
2022-09-17T01:49:51.681Z,100076.97
2022-09-17T01:52:21.865Z,100079.69
2022-09-17T01:54:55.479Z,100078.94
2022-09-17T01:57:29.986Z,100082.69
2022-09-17T02:00:02.535Z,100084.78
2022-09-17T02:02:46.401Z,100078.81
2022-09-17T02:05:20.522Z,100088.84
2022-09-17T02:07:52.235Z,100085.72
2022-09-17T02:10:23.603Z,100097.94
2022-09-17T02:12:58.026Z,100099.09
2022-09-17T02:15:32.279Z,100092.44
2022-09-17T02:18:07.458Z,100103.72
2022-09-17T02:20:42.550Z,100100.84
2022-09-17T02:23:17.539Z,100101.19
2022-09-17T02:25:50.754Z,100103.63
2022-09-17T02:28:25.277Z,100105.09
2022-09-17T02:30:53.186Z,100103.34
2022-09-17T02:33:23.544Z,100107.56
2022-09-17T02:35:51.695Z,100105.09
2022-09-17T02:38:24.439Z,100101.72
2022-09-17T02:41:00.351Z,100105.94
2022-09-17T02:43:36.695Z,100099.81
2022-09-17T02:46:20.968Z,100085.53
2022-09-17T02:49:15.472Z,100091.13
2022-09-17T02:51:53.495Z,100088.72
2022-09-17T02:54:28.257Z,100090.34
2022-09-17T02:57:09.401Z,100102.41
2022-09-17T02:59:43.026Z,100107.69
2022-09-17T03:02:24.298Z,100099.91
2022-09-17T03:04:55.139Z,100095.81
2022-09-17T03:07:24.819Z,100095.75
2022-09-17T03:09:52.818Z,100095.13
2022-09-17T03:12:20.768Z,100090.28
2022-09-17T03:14:48.689Z,100100.66
2022-09-17T03:17:17.147Z,100096.25
2022-09-17T03:19:44.914Z,100102.06
2022-09-17T03:22:14.115Z,100095.44
2022-09-17T03:24:41.963Z,100099.09
2022-09-17T03:27:09.795Z,100097.09
2022-09-17T03:29:37.724Z,100096.03
2022-09-17T03:32:05.937Z,100097.78
2022-09-17T03:34:34.155Z,100091.41
2022-09-17T03:37:02.319Z,100092.31
2022-09-17T03:39:31.805Z,100100.09
2022-09-17T03:41:59.737Z,100102.00
2022-09-17T03:44:27.670Z,100101.00
2022-09-17T03:46:55.789Z,100101.69
2022-09-17T03:49:24.887Z,100101.13
2022-09-17T03:51:52.781Z,100103.19
2022-09-17T03:54:20.573Z,100100.72
2022-09-17T03:56:50.139Z,100101.69
2022-09-17T03:59:18.104Z,100099.72
2022-09-17T04:01:46.170Z,100105.84
2022-09-17T04:04:13.967Z,100100.63
2022-09-17T04:06:41.873Z,100104.94
2022-09-17T04:09:09.801Z,100106.41
2022-09-17T04:11:37.808Z,100104.88
2022-09-17T04:14:07.293Z,100107.03
2022-09-17T04:16:35.291Z,100109.72
2022-09-17T04:19:03.665Z,100110.56
2022-09-17T04:21:31.499Z,100113.28
2022-09-17T04:23:59.877Z,100112.16
2022-09-17T04:26:27.769Z,100107.97
2022-09-17T04:28:55.519Z,100110.56
2022-09-17T04:31:27.069Z,100110.56
2022-09-17T04:33:55.183Z,100102.78
2022-09-17T04:36:23.032Z,100105.13
2022-09-17T04:38:51.219Z,100115.69
2022-09-17T04:41:19.522Z,100115.78
2022-09-17T04:43:49.356Z,100116.72
2022-09-17T04:46:17.894Z,100128.81
2022-09-17T04:48:47.130Z,100131.72
2022-09-17T04:51:15.148Z,100130.88
2022-09-17T04:53:42.965Z,100131.63
2022-09-17T04:56:10.791Z,100127.22
2022-09-17T04:58:39.151Z,100140.22
2022-09-17T05:01:07.426Z,100132.13
2022-09-17T05:03:35.506Z,100130.47
2022-09-17T05:06:05.390Z,100137.47
2022-09-17T05:08:33.324Z,100137.53
2022-09-17T05:11:01.303Z,100137.31
2022-09-17T05:13:29.204Z,100127.78
2022-09-17T05:15:57.569Z,100130.78
2022-09-17T05:18:26.263Z,100134.94
2022-09-17T05:20:54.143Z,100145.56
2022-09-17T05:23:23.322Z,100142.88
2022-09-17T05:25:52.781Z,100139.63
2022-09-17T05:28:20.690Z,100137.81
2022-09-17T05:30:49.117Z,100142.03
2022-09-17T05:33:17.259Z,100140.72
2022-09-17T05:35:45.326Z,100144.44
2022-09-17T05:38:13.369Z,100151.19
2022-09-17T05:40:43.605Z,100153.03
2022-09-17T05:43:12.451Z,100149.44
2022-09-17T05:45:40.467Z,100157.56
2022-09-17T05:48:12.604Z,100154.91
2022-09-17T05:50:41.331Z,100156.53
2022-09-17T05:53:13.022Z,100159.50
2022-09-17T05:55:42.524Z,100168.22
2022-09-17T05:58:12.189Z,100174.97
2022-09-17T06:00:41.227Z,100181.13
2022-09-17T06:03:10.271Z,100185.44
2022-09-17T06:05:38.497Z,100182.56
2022-09-17T06:08:06.921Z,100183.53
2022-09-17T06:10:38.281Z,100189.56
2022-09-17T06:13:07.512Z,100185.06
2022-09-17T06:15:35.486Z,100180.81
2022-09-17T06:18:03.368Z,100184.47
2022-09-17T06:20:31.175Z,100191.41
2022-09-17T06:22:59.746Z,100188.63
2022-09-17T06:25:29.410Z,100187.97
2022-09-17T06:27:58.703Z,100189.78
2022-09-17T06:30:28.540Z,100187.81
2022-09-17T06:32:56.614Z,100196.25
2022-09-17T06:35:25.239Z,100192.47
2022-09-17T06:37:53.127Z,100196.19
2022-09-17T06:40:23.533Z,100188.28
2022-09-17T06:42:51.614Z,100184.28
2022-09-17T06:45:19.657Z,100185.13
2022-09-17T06:47:49.182Z,100201.47
2022-09-17T06:50:17.245Z,100201.31
2022-09-17T06:52:49.515Z,100204.06
2022-09-17T06:55:18.561Z,100193.66
2022-09-17T06:57:46.566Z,100196.50
2022-09-17T07:00:15.905Z,100191.81
2022-09-17T07:02:43.787Z,100186.63
2022-09-17T07:05:13.092Z,100180.34
2022-09-17T07:07:41.239Z,100189.47
2022-09-17T07:10:10.053Z,100178.78
2022-09-17T07:12:46.627Z,100180.50
2022-09-17T07:15:17.278Z,100188.03
2022-09-17T07:17:45.572Z,100176.63
2022-09-17T07:20:15.555Z,100182.22
2022-09-17T07:22:43.892Z,100192.41
2022-09-17T07:25:12.437Z,100188.06
2022-09-17T07:27:41.482Z,100191.88
2022-09-17T07:30:11.227Z,100188.41
2022-09-17T07:32:39.246Z,100195.06
2022-09-17T07:35:08.009Z,100181.63
2022-09-17T07:37:37.735Z,100196.97
2022-09-17T07:40:07.664Z,100202.00
2022-09-17T07:42:36.110Z,100200.34
2022-09-17T07:45:04.217Z,100200.06
2022-09-17T07:47:32.936Z,100206.78
2022-09-17T07:50:04.074Z,100203.28
2022-09-17T07:52:33.252Z,100201.28
2022-09-17T07:55:02.577Z,100209.59
2022-09-17T07:57:30.578Z,100201.31
2022-09-17T07:59:58.411Z,100208.63
2022-09-17T08:02:27.026Z,100212.75
2022-09-17T08:04:55.288Z,100202.97
2022-09-17T08:07:23.443Z,100202.16
2022-09-17T08:09:51.763Z,100204.22
2022-09-17T08:12:22.799Z,100204.78
2022-09-17T08:14:50.746Z,100199.91
2022-09-17T08:17:18.635Z,100206.13
2022-09-17T08:19:46.666Z,100193.00
2022-09-17T08:22:15.006Z,100204.28
2022-09-17T08:24:43.051Z,100212.16
2022-09-17T08:27:11.539Z,100205.31
2022-09-17T08:29:40.727Z,100196.38
2022-09-17T08:32:08.862Z,100201.31
2022-09-17T08:34:37.086Z,100202.47
2022-09-17T08:37:04.939Z,100201.56
2022-09-17T08:39:32.806Z,100204.66
2022-09-17T08:42:09.873Z,100210.94
2022-09-17T08:44:45.580Z,100205.19
2022-09-17T08:47:19.562Z,100205.03
2022-09-17T08:49:54.003Z,100217.59
2022-09-17T08:52:55.526Z,100224.53
2022-09-17T08:55:36.717Z,100236.63
2022-09-17T08:58:41.869Z,100234.59
2022-09-17T09:01:21.992Z,100228.06
2022-09-17T09:04:05.490Z,100227.66
2022-09-17T09:06:41.137Z,100221.09
2022-09-17T09:09:15.681Z,100220.94
2022-09-17T09:11:50.990Z,100210.41
2022-09-17T09:14:24.897Z,100220.22
2022-09-17T09:16:56.819Z,100216.59
2022-09-17T09:19:27.072Z,100209.38
2022-09-17T09:22:05.921Z,100208.50
2022-09-17T09:24:42.646Z,100211.31
2022-09-17T09:27:19.424Z,100218.16
2022-09-17T09:29:59.262Z,100213.78
2022-09-17T09:32:42.299Z,100204.50
2022-09-17T09:35:18.782Z,100213.97
2022-09-17T09:37:54.906Z,100214.81
2022-09-17T09:40:43.954Z,100220.88
2022-09-17T09:43:19.963Z,100222.00
2022-09-17T09:46:08.750Z,100222.28
2022-09-17T09:48:51.647Z,100217.59
2022-09-17T09:51:32.613Z,100214.03
2022-09-17T09:54:14.543Z,100216.34
2022-09-17T09:56:56.132Z,100230.81
2022-09-17T09:59:24.508Z,100220.41
2022-09-17T10:01:53.122Z,100218.78
2022-09-17T10:04:25.843Z,100231.16
2022-09-17T10:06:55.781Z,100221.69
2022-09-17T10:09:23.957Z,100213.56
2022-09-17T10:12:03.191Z,100207.34
2022-09-17T10:14:33.393Z,100203.72
2022-09-17T10:17:18.120Z,100197.97
2022-09-17T10:19:48.861Z,100192.81
2022-09-17T10:22:26.467Z,100197.88
2022-09-17T10:24:56.836Z,100198.59
2022-09-17T10:27:26.643Z,100198.22
2022-09-17T10:30:04.093Z,100203.94
2022-09-17T10:32:32.395Z,100213.66
2022-09-17T10:35:05.055Z,100209.34
2022-09-17T10:37:36.872Z,100201.25
2022-09-17T10:40:27.352Z,100210.75
2022-09-17T10:43:22.444Z,100212.53
2022-09-17T10:45:59.974Z,100211.94
2022-09-17T10:48:32.983Z,100218.47
2022-09-17T10:51:03.468Z,100222.28
2022-09-17T10:53:31.505Z,100227.91
2022-09-17T10:56:12.571Z,100225.25
2022-09-17T10:58:54.117Z,100225.75
2022-09-17T11:01:37.177Z,100219.13
2022-09-17T11:04:21.653Z,100224.13
2022-09-17T11:07:21.898Z,100220.91
2022-09-17T11:09:57.735Z,100223.00
2022-09-17T11:12:38.153Z,100211.75
2022-09-17T11:15:21.963Z,100207.25
2022-09-17T11:18:31.301Z,100206.16
2022-09-17T11:21:14.977Z,100214.63
2022-09-17T11:24:34.781Z,100211.94
2022-09-17T11:27:13.309Z,100205.09
2022-09-17T11:30:05.554Z,100203.09
2022-09-17T11:33:00.439Z,100199.97
2022-09-17T11:35:32.098Z,100190.84
2022-09-17T11:38:07.522Z,100187.38
2022-09-17T11:40:42.931Z,100195.47
2022-09-17T11:43:19.529Z,100181.47
2022-09-17T11:45:58.289Z,100187.03
2022-09-17T11:48:34.963Z,100177.31
2022-09-17T11:51:09.896Z,100191.47
2022-09-17T11:53:44.347Z,100183.47
2022-09-17T11:56:20.816Z,100176.47
2022-09-17T11:58:52.899Z,100183.50
2022-09-17T12:01:26.789Z,100178.47
2022-09-17T12:03:59.375Z,100167.66
2022-09-17T12:06:35.118Z,100160.19
2022-09-17T12:09:10.652Z,100155.78
2022-09-17T12:11:46.519Z,100153.03
2022-09-17T12:14:21.982Z,100140.56
2022-09-17T12:16:54.095Z,100142.69
2022-09-17T12:19:27.606Z,100143.00
2022-09-17T12:22:01.418Z,100131.56
2022-09-17T12:24:30.996Z,100144.38
2022-09-17T12:27:10.917Z,100135.75
2022-09-17T12:30:11.099Z,100138.63
2022-09-17T12:32:52.236Z,100140.22
2022-09-17T12:36:00.183Z,100135.56
2022-09-17T12:38:42.500Z,100137.38
2022-09-17T12:41:17.490Z,100141.50
2022-09-17T12:44:01.031Z,100130.81
2022-09-17T12:46:48.095Z,100153.63
2022-09-17T12:49:39.535Z,100141.28
2022-09-17T12:52:14.903Z,100134.09
2022-09-17T12:55:24.681Z,100122.00
2022-09-17T12:58:01.163Z,100127.94
2022-09-17T13:00:30.446Z,100134.03
2022-09-17T13:03:05.295Z,100130.13
2022-09-17T13:05:58.333Z,100137.13
2022-09-17T13:09:00.375Z,100131.25
2022-09-17T13:11:55.036Z,100127.84
2022-09-17T13:14:31.907Z,100127.16
2022-09-17T13:17:08.037Z,100120.91
2022-09-17T13:19:41.523Z,100124.75
2022-09-17T13:22:18.047Z,100123.19
2022-09-17T13:24:48.979Z,100123.50
2022-09-17T13:27:25.624Z,100113.38
2022-09-17T13:30:04.133Z,100116.78
2022-09-17T13:32:53.782Z,100118.91
2022-09-17T13:35:50.788Z,100112.56
2022-09-17T13:38:24.460Z,100108.19
2022-09-17T13:40:53.561Z,100114.53
2022-09-17T13:43:27.191Z,100107.19
2022-09-17T13:46:18.226Z,100116.81
2022-09-17T13:48:50.942Z,100112.22
2022-09-17T13:51:58.346Z,100111.22
2022-09-17T13:54:38.890Z,100107.22
2022-09-17T13:57:16.256Z,100091.53
2022-09-17T13:59:59.295Z,100099.69
2022-09-17T14:02:39.577Z,100098.38
2022-09-17T14:05:39.203Z,100106.25
2022-09-17T14:08:30.948Z,100107.50
2022-09-17T14:11:01.907Z,100106.50
2022-09-17T14:13:44.869Z,100110.97
2022-09-17T14:16:37.701Z,100115.28
2022-09-17T14:19:24.477Z,100116.28
2022-09-17T14:22:02.670Z,100106.88
2022-09-17T14:24:38.531Z,100109.72
2022-09-17T14:27:16.266Z,100112.34
2022-09-17T14:30:07.061Z,100113.19
2022-09-17T14:32:42.297Z,100106.66
2022-09-17T14:35:21.490Z,100115.31
2022-09-17T14:37:56.535Z,100119.97
2022-09-17T14:40:25.708Z,100118.75
2022-09-17T14:42:56.853Z,100111.19
2022-09-17T14:45:32.271Z,100113.59
2022-09-17T14:48:31.423Z,100115.28
2022-09-17T14:51:29.487Z,100118.03
2022-09-17T14:54:17.264Z,100124.63
2022-09-17T14:56:50.685Z,100136.03
2022-09-17T14:59:24.790Z,100134.03
2022-09-17T15:01:52.891Z,100133.94
2022-09-17T15:04:26.525Z,100132.78
2022-09-17T15:07:06.837Z,100126.81
2022-09-17T15:09:36.208Z,100141.78
2022-09-17T15:12:06.074Z,100138.47
2022-09-17T15:14:38.271Z,100134.88
2022-09-17T15:17:07.133Z,100138.78
2022-09-17T15:19:38.335Z,100135.19
2022-09-17T15:22:10.973Z,100133.31
2022-09-17T15:24:44.887Z,100135.94
2022-09-17T15:27:18.419Z,100137.81
2022-09-17T15:29:50.691Z,100136.34
2022-09-17T15:32:18.819Z,100134.56
2022-09-17T15:34:47.036Z,100125.59
2022-09-17T15:37:19.436Z,100138.41
2022-09-17T15:39:55.651Z,100139.38
2022-09-17T15:42:28.842Z,100142.97
2022-09-17T15:45:09.420Z,100149.69
2022-09-17T15:47:49.573Z,100167.19
2022-09-17T15:50:19.797Z,100174.31
2022-09-17T15:52:48.553Z,100179.72
2022-09-17T15:55:37.183Z,100190.06
2022-09-17T15:58:18.809Z,100181.78
2022-09-17T16:00:47.453Z,100204.53
2022-09-17T16:04:06.385Z,100211.22
2022-09-17T16:06:40.298Z,100197.84
2022-09-17T16:09:41.301Z,100205.66
2022-09-17T16:12:14.698Z,100213.03
2022-09-17T16:14:50.765Z,100215.88
2022-09-17T16:17:35.616Z,100220.09
2022-09-17T16:20:16.754Z,100222.63
2022-09-17T16:22:45.483Z,100226.84
2022-09-17T16:25:13.700Z,100223.41
2022-09-17T16:27:50.342Z,100222.72
2022-09-17T16:30:20.496Z,100232.31
2022-09-17T16:32:48.893Z,100229.88
2022-09-17T16:35:18.580Z,100233.34
2022-09-17T16:37:50.141Z,100231.56
2022-09-17T16:40:18.736Z,100227.97
2022-09-17T16:42:48.911Z,100213.47
2022-09-17T16:45:22.651Z,100211.66
2022-09-17T16:47:53.752Z,100211.94
2022-09-17T16:50:21.683Z,100212.56
2022-09-17T16:52:50.557Z,100205.25
2022-09-17T16:55:19.465Z,100213.34
2022-09-17T16:57:49.330Z,100206.50
2022-09-17T17:00:19.914Z,100205.75
2022-09-17T17:02:53.685Z,100206.31
2022-09-17T17:05:21.721Z,100206.66
2022-09-17T17:07:50.234Z,100211.41
2022-09-17T17:10:18.247Z,100209.38
2022-09-17T17:12:46.235Z,100206.66
2022-09-17T17:15:16.524Z,100212.44
2022-09-17T17:17:44.510Z,100207.72
2022-09-17T17:20:14.518Z,100209.25
2022-09-17T17:22:43.372Z,100214.53
2022-09-17T17:25:12.690Z,100204.84
2022-09-17T17:27:41.406Z,100231.50
2022-09-17T17:30:16.617Z,100225.59
2022-09-17T17:32:50.530Z,100229.84
2022-09-17T17:35:19.167Z,100241.53
2022-09-17T17:37:48.571Z,100242.22
2022-09-17T17:40:16.745Z,100249.22
2022-09-17T17:42:47.467Z,100253.75
2022-09-17T17:45:15.840Z,100256.94
2022-09-17T17:47:46.278Z,100270.66
2022-09-17T17:50:15.731Z,100267.16
2022-09-17T17:52:47.993Z,100277.16
2022-09-17T17:55:16.692Z,100275.78
2022-09-17T17:57:44.601Z,100283.06
2022-09-17T18:00:16.242Z,100291.66
2022-09-17T18:02:45.719Z,100285.03
2022-09-17T18:05:14.282Z,100286.50
2022-09-17T18:07:42.147Z,100291.22
2022-09-17T18:10:11.011Z,100292.28
2022-09-17T18:12:38.849Z,100295.53
2022-09-17T18:15:08.394Z,100294.69
2022-09-17T18:17:36.646Z,100313.75
2022-09-17T18:20:06.604Z,100314.50
2022-09-17T18:22:34.461Z,100317.03
2022-09-17T18:25:02.367Z,100332.25
2022-09-17T18:27:31.266Z,100336.81
2022-09-17T18:29:59.118Z,100341.63
2022-09-17T18:32:26.963Z,100357.25
2022-09-17T18:34:54.867Z,100354.41
2022-09-17T18:37:24.209Z,100346.19
2022-09-17T18:39:58.420Z,100344.50
2022-09-17T18:42:27.157Z,100344.88
2022-09-17T18:44:55.155Z,100350.41
2022-09-17T18:47:23.667Z,100350.13
2022-09-17T18:49:51.475Z,100353.53
2022-09-17T18:52:19.896Z,100349.66
2022-09-17T18:54:49.195Z,100334.44
2022-09-17T18:57:17.530Z,100330.22
2022-09-17T18:59:45.432Z,100346.31
2022-09-17T19:02:14.021Z,100349.28
2022-09-17T19:04:42.738Z,100346.69
2022-09-17T19:07:10.576Z,100347.53
2022-09-17T19:09:38.502Z,100349.78
2022-09-17T19:12:07.887Z,100353.34
2022-09-17T19:14:36.225Z,100353.00
2022-09-17T19:17:04.123Z,100363.13
2022-09-17T19:19:31.945Z,100369.78
2022-09-17T19:21:59.866Z,100376.72
2022-09-17T19:24:28.086Z,100385.84
2022-09-17T19:26:56.013Z,100390.28
2022-09-17T19:29:25.750Z,100391.88
2022-09-17T19:31:53.589Z,100388.00
2022-09-17T19:34:24.200Z,100386.38
2022-09-17T19:36:52.052Z,100385.13
2022-09-17T19:39:19.952Z,100384.53
2022-09-17T19:41:48.156Z,100380.06
2022-09-17T19:44:16.107Z,100386.38
2022-09-17T19:46:46.635Z,100382.59
2022-09-17T19:49:14.652Z,100382.28
2022-09-17T19:51:42.560Z,100383.84
2022-09-17T19:54:11.757Z,100380.03
2022-09-17T19:56:40.018Z,100385.72
2022-09-17T19:59:07.958Z,100385.44
2022-09-17T20:01:36.329Z,100385.59
2022-09-17T20:04:07.013Z,100381.41
2022-09-17T20:06:35.446Z,100389.28
2022-09-17T20:09:04.229Z,100379.38
2022-09-17T20:11:32.111Z,100384.16
2022-09-17T20:14:03.278Z,100385.63
2022-09-17T20:16:31.838Z,100393.16
2022-09-17T20:18:59.941Z,100385.63
2022-09-17T20:21:31.290Z,100386.28
2022-09-17T20:23:59.757Z,100388.75
2022-09-17T20:26:28.270Z,100394.03
2022-09-17T20:28:56.537Z,100402.28
2022-09-17T20:31:25.998Z,100397.41
2022-09-17T20:33:55.252Z,100400.09
2022-09-17T20:36:25.736Z,100399.38
2022-09-17T20:39:23.220Z,100395.09
2022-09-17T20:41:43.505Z,100388.50
2022-09-17T20:44:11.834Z,100395.53
2022-09-17T20:46:40.036Z,100392.09
2022-09-17T20:49:07.941Z,100389.94
2022-09-17T20:51:36.344Z,100390.97
2022-09-17T20:54:07.486Z,100392.50
2022-09-17T20:56:36.367Z,100387.16
2022-09-17T20:59:13.003Z,100393.00
2022-09-17T21:01:44.689Z,100399.56
2022-09-17T21:04:15.925Z,100405.50
2022-09-17T21:06:45.124Z,100397.53
2022-09-17T21:09:16.695Z,100397.13
2022-09-17T21:11:45.519Z,100409.88
2022-09-17T21:14:15.583Z,100405.84
2022-09-17T21:16:43.510Z,100400.59
2022-09-17T21:19:14.095Z,100398.03
2022-09-17T21:21:41.924Z,100409.16
2022-09-17T21:24:10.487Z,100402.34
2022-09-17T21:26:39.804Z,100410.00
2022-09-17T21:29:07.918Z,100405.47
2022-09-17T21:31:38.625Z,100401.16
2022-09-17T21:34:08.586Z,100404.66
2022-09-17T21:36:38.900Z,100403.19
2022-09-17T21:39:13.598Z,100406.41
2022-09-17T21:41:43.253Z,100401.34
2022-09-17T21:44:11.670Z,100407.56
2022-09-17T21:46:41.684Z,100394.53
2022-09-17T21:49:10.001Z,100403.50
2022-09-17T21:51:39.439Z,100405.19
2022-09-17T21:54:09.170Z,100405.72
2022-09-17T21:56:37.557Z,100410.00
2022-09-17T21:59:08.046Z,100410.91
2022-09-17T22:01:40.139Z,100411.78
2022-09-17T22:04:09.957Z,100416.06
2022-09-17T22:06:38.670Z,100414.44
2022-09-17T22:09:07.964Z,100416.31
2022-09-17T22:11:38.137Z,100416.31
2022-09-17T22:14:11.766Z,100418.31
2022-09-17T22:16:41.795Z,100407.59
2022-09-17T22:19:11.891Z,100413.91
2022-09-17T22:21:42.310Z,100409.75
2022-09-17T22:24:12.020Z,100409.97
2022-09-17T22:26:43.272Z,100418.41
2022-09-17T22:29:16.009Z,100407.94
2022-09-17T22:31:45.152Z,100411.91
2022-09-17T22:34:15.541Z,100404.84
2022-09-17T22:36:44.010Z,100412.44
2022-09-17T22:39:12.608Z,100417.38
2022-09-17T22:41:45.126Z,100413.88
2022-09-17T22:44:17.545Z,100414.81
2022-09-17T22:46:47.347Z,100415.78
2022-09-17T22:49:15.638Z,100409.97
2022-09-17T22:51:44.653Z,100410.91
2022-09-17T22:54:14.908Z,100412.56
2022-09-17T22:56:43.575Z,100407.56
2022-09-17T22:59:11.619Z,100407.59
2022-09-17T23:01:43.255Z,100410.34
2022-09-17T23:04:11.723Z,100412.88
2022-09-17T23:06:42.438Z,100415.78
2022-09-17T23:09:12.686Z,100416.19
2022-09-17T23:11:40.613Z,100412.84
2022-09-17T23:14:10.418Z,100411.56
2022-09-17T23:16:40.150Z,100411.72
2022-09-17T23:19:10.286Z,100412.28
2022-09-17T23:21:39.500Z,100409.13
2022-09-17T23:24:08.202Z,100404.47
2022-09-17T23:26:36.196Z,100401.00
2022-09-17T23:29:05.795Z,100405.06
2022-09-17T23:31:35.665Z,100410.06
2022-09-17T23:34:05.443Z,100400.50
2022-09-17T23:36:38.735Z,100401.56
2022-09-17T23:39:08.772Z,100403.97
2022-09-17T23:41:39.901Z,100401.09
2022-09-17T23:44:14.587Z,100394.91
2022-09-17T23:46:43.110Z,100393.59
2022-09-17T23:49:12.128Z,100395.44
2022-09-17T23:51:41.926Z,100399.66
2022-09-17T23:54:10.545Z,100402.72
2022-09-17T23:56:39.597Z,100396.16
2022-09-17T23:59:08.684Z,100398.75
